createdAt,value
2023-04-15T00:00:37.818Z,2.07
2023-04-15T00:03:07.320Z,2.20
2023-04-15T00:05:35.996Z,2.07
2023-04-15T00:08:04.496Z,1.70
2023-04-15T00:10:34.032Z,1.70
2023-04-15T00:13:04.382Z,2.10
2023-04-15T00:15:32.873Z,2.37
2023-04-15T00:18:01.339Z,2.57
2023-04-15T00:20:29.558Z,2.33
2023-04-15T00:22:58.044Z,1.83
2023-04-15T00:25:26.307Z,2.37
2023-04-15T00:27:55.935Z,1.70
2023-04-15T00:30:26.594Z,2.00
2023-04-15T00:32:54.788Z,2.43
2023-04-15T00:35:24.132Z,2.00
2023-04-15T00:37:52.337Z,2.40
2023-04-15T00:40:24.613Z,2.53
2023-04-15T00:42:53.456Z,2.80
2023-04-15T00:45:23.378Z,2.90
2023-04-15T00:47:52.470Z,2.60
2023-04-15T00:50:20.722Z,2.67
2023-04-15T00:52:49.600Z,2.40
2023-04-15T00:55:17.896Z,3.17
2023-04-15T00:57:46.511Z,2.83
2023-04-15T01:00:16.638Z,2.90
2023-04-15T01:02:46.670Z,2.90
2023-04-15T01:05:17.274Z,2.73
2023-04-15T01:07:45.488Z,2.90
2023-04-15T01:10:13.755Z,2.37
2023-04-15T01:12:43.596Z,2.53
2023-04-15T01:15:12.307Z,2.77
2023-04-15T01:17:41.060Z,2.90
2023-04-15T01:20:12.162Z,2.20
2023-04-15T01:22:40.849Z,2.60
2023-04-15T01:25:13.676Z,2.30
2023-04-15T01:27:43.702Z,2.70
2023-04-15T01:30:12.623Z,2.13
2023-04-15T01:32:41.095Z,2.20
2023-04-15T01:35:09.946Z,2.80
2023-04-15T01:37:38.479Z,3.57
2023-04-15T01:40:08.297Z,2.60
2023-04-15T01:42:37.720Z,2.23
2023-04-15T01:45:08.567Z,2.50
2023-04-15T01:47:39.316Z,1.80
2023-04-15T01:50:08.513Z,1.90
2023-04-15T01:52:36.675Z,1.70
2023-04-15T01:55:06.388Z,2.17
2023-04-15T01:57:34.709Z,1.87
2023-04-15T02:00:03.608Z,2.30
2023-04-15T02:02:43.050Z,1.70
2023-04-15T02:05:11.210Z,1.73
2023-04-15T02:07:39.295Z,2.37
2023-04-15T02:10:08.045Z,2.57
2023-04-15T02:12:37.065Z,2.03
2023-04-15T02:15:06.104Z,1.97
2023-04-15T02:17:36.517Z,2.50
2023-04-15T02:20:07.124Z,3.40
2023-04-15T02:22:35.443Z,2.43
2023-04-15T02:25:03.883Z,2.20
2023-04-15T02:27:33.889Z,2.07
2023-04-15T02:30:02.068Z,1.63
2023-04-15T02:32:30.217Z,1.80
2023-04-15T02:34:58.417Z,2.10
2023-04-15T02:37:28.679Z,1.93
2023-04-15T02:39:57.293Z,2.60
2023-04-15T02:42:28.035Z,2.00
2023-04-15T02:44:56.741Z,2.10
2023-04-15T02:47:30.423Z,1.93
2023-04-15T02:50:00.546Z,1.90
2023-04-15T02:52:31.785Z,2.20
2023-04-15T02:55:02.621Z,2.00
2023-04-15T02:57:31.798Z,2.30
2023-04-15T03:00:09.952Z,2.50
2023-04-15T03:02:42.131Z,2.00
2023-04-15T03:05:13.895Z,2.17
2023-04-15T03:07:49.608Z,2.20
2023-04-15T03:10:18.140Z,2.17
2023-04-15T03:12:47.972Z,2.10
2023-04-15T03:15:19.719Z,2.87
2023-04-15T03:17:51.266Z,2.80
2023-04-15T03:20:19.768Z,2.30
2023-04-15T03:22:51.025Z,2.20
2023-04-15T03:25:21.561Z,2.17
2023-04-15T03:27:49.770Z,2.00
2023-04-15T03:30:19.193Z,2.70
2023-04-15T03:32:47.727Z,1.80
2023-04-15T03:35:16.609Z,2.00
2023-04-15T03:37:44.750Z,1.80
2023-04-15T03:40:14.678Z,2.07
2023-04-15T03:42:42.928Z,1.57
2023-04-15T03:45:12.128Z,1.70
2023-04-15T03:47:40.331Z,1.93
2023-04-15T03:50:09.385Z,1.73
2023-04-15T03:52:37.593Z,1.77
2023-04-15T03:55:06.757Z,2.57
2023-04-15T03:57:39.057Z,1.80
2023-04-15T04:00:09.281Z,1.90
2023-04-15T04:02:40.232Z,1.53
2023-04-15T04:05:09.296Z,1.40
2023-04-15T04:07:37.457Z,1.20
2023-04-15T04:10:06.105Z,1.57
2023-04-15T04:12:35.691Z,1.80
2023-04-15T04:15:03.876Z,2.00
2023-04-15T04:17:32.069Z,2.13
2023-04-15T04:20:00.216Z,2.30
2023-04-15T04:22:28.421Z,2.27
2023-04-15T04:24:56.740Z,2.50
2023-04-15T04:27:24.975Z,2.17
2023-04-15T04:29:54.415Z,3.93
2023-04-15T04:32:22.531Z,2.50
2023-04-15T04:34:50.744Z,2.60
2023-04-15T04:37:19.068Z,2.27
2023-04-15T04:39:47.314Z,3.13
2023-04-15T04:42:15.523Z,2.17
2023-04-15T04:44:43.691Z,4.30
2023-04-15T04:47:13.242Z,2.00
2023-04-15T04:49:41.770Z,1.67
2023-04-15T04:52:09.856Z,1.87
2023-04-15T04:54:38.027Z,1.70
2023-04-15T04:57:07.871Z,1.73
2023-04-15T04:59:36.577Z,2.73
2023-04-15T05:02:04.819Z,2.40
2023-04-15T05:04:34.655Z,2.30
2023-04-15T05:07:02.763Z,2.20
2023-04-15T05:09:32.517Z,1.83
2023-04-15T05:12:01.480Z,2.30
2023-04-15T05:14:29.672Z,2.00
2023-04-15T05:16:57.850Z,1.83
2023-04-15T05:19:25.971Z,2.30
2023-04-15T05:21:55.654Z,1.63
2023-04-15T05:24:23.844Z,1.33
2023-04-15T05:26:51.919Z,1.47
2023-04-15T05:29:20.157Z,1.60
2023-04-15T05:31:48.252Z,1.43
2023-04-15T05:34:17.526Z,1.83
2023-04-15T05:36:45.871Z,1.30
2023-04-15T05:39:15.554Z,1.53
2023-04-15T05:41:43.712Z,1.60
2023-04-15T05:44:11.851Z,1.90
2023-04-15T05:46:40.253Z,1.73
2023-04-15T05:49:08.425Z,1.60
2023-04-15T05:51:37.067Z,1.93
2023-04-15T05:54:05.729Z,2.07
2023-04-15T05:56:35.514Z,2.13
2023-04-15T05:59:04.096Z,1.93
2023-04-15T06:01:32.824Z,2.40
2023-04-15T06:04:01.018Z,1.70
2023-04-15T06:06:29.323Z,2.10
2023-04-15T06:08:57.572Z,2.10
2023-04-15T06:11:26.798Z,2.80
2023-04-15T06:13:56.594Z,2.40
2023-04-15T06:16:24.809Z,2.77
2023-04-15T06:18:52.963Z,2.30
2023-04-15T06:21:21.417Z,2.30
2023-04-15T06:23:49.578Z,2.80
2023-04-15T06:26:17.741Z,3.13
2023-04-15T06:28:45.870Z,2.93
2023-04-15T06:31:16.183Z,2.80
2023-04-15T06:33:44.356Z,2.70
2023-04-15T06:36:12.586Z,3.23
2023-04-15T06:38:40.763Z,3.53
2023-04-15T06:41:08.994Z,3.77
2023-04-15T06:43:37.206Z,3.50
2023-04-15T06:46:05.728Z,2.97
2023-04-15T06:48:35.216Z,2.73
2023-04-15T06:51:04.124Z,3.13
2023-04-15T06:53:32.827Z,2.83
2023-04-15T06:56:01.150Z,2.80
2023-04-15T06:58:29.418Z,3.17
2023-04-15T07:00:58.027Z,3.27
2023-04-15T07:03:26.268Z,3.30
2023-04-15T07:05:56.002Z,3.73
2023-04-15T07:08:24.486Z,3.33
2023-04-15T07:10:52.809Z,4.33
2023-04-15T07:13:21.017Z,3.30
2023-04-15T07:15:49.286Z,3.77
2023-04-15T07:18:17.718Z,4.40
2023-04-15T07:20:45.796Z,4.07
2023-04-15T07:23:15.574Z,5.10
2023-04-15T07:25:43.668Z,5.50
2023-04-15T07:28:12.074Z,5.70
2023-04-15T07:30:40.304Z,5.77
2023-04-15T07:33:08.425Z,4.80
2023-04-15T07:35:36.885Z,4.10
2023-04-15T07:38:04.959Z,3.87
2023-04-15T07:40:34.555Z,4.10
2023-04-15T07:43:03.527Z,3.93
2023-04-15T07:45:31.725Z,4.60
2023-04-15T07:47:59.809Z,4.93
2023-04-15T07:50:27.961Z,5.03
2023-04-15T07:52:56.350Z,4.60
2023-04-15T07:55:25.794Z,4.70
2023-04-15T07:57:56.618Z,5.20
2023-04-15T08:00:24.829Z,4.73
2023-04-15T08:02:54.082Z,6.20
2023-04-15T08:05:22.577Z,4.37
2023-04-15T08:07:50.765Z,4.60
2023-04-15T08:10:19.007Z,4.20
2023-04-15T08:12:49.234Z,4.10
2023-04-15T08:15:18.866Z,4.17
2023-04-15T08:17:47.098Z,3.63
2023-04-15T08:20:15.513Z,5.53
2023-04-15T08:22:43.749Z,4.17
2023-04-15T08:25:11.813Z,3.70
2023-04-15T08:27:39.980Z,3.67
2023-04-15T08:30:09.534Z,3.10
2023-04-15T08:32:39.039Z,3.60
2023-04-15T08:35:08.190Z,2.90
2023-04-15T08:37:36.323Z,3.60
2023-04-15T08:40:04.860Z,2.73
2023-04-15T08:42:37.942Z,3.30
2023-04-15T08:45:10.248Z,3.33
2023-04-15T08:47:40.716Z,2.80
2023-04-15T08:50:11.940Z,3.00
2023-04-15T08:52:41.199Z,3.27
2023-04-15T08:55:10.608Z,2.77
2023-04-15T08:57:39.830Z,2.93
2023-04-15T09:00:09.419Z,3.07
2023-04-15T09:02:39.671Z,2.73
2023-04-15T09:05:09.102Z,2.00
2023-04-15T09:07:37.472Z,2.60
2023-04-15T09:10:06.560Z,3.13
2023-04-15T09:12:36.257Z,3.20
2023-04-15T09:15:04.625Z,3.30
2023-04-15T09:17:35.139Z,3.57
2023-04-15T09:20:13.075Z,3.47
2023-04-15T09:22:42.277Z,5.10
2023-04-15T09:25:28.762Z,3.93
2023-04-15T09:27:58.437Z,4.50
2023-04-15T09:30:27.101Z,4.60
2023-04-15T09:32:57.348Z,3.80
2023-04-15T09:35:27.962Z,5.90
2023-04-15T09:38:04.396Z,5.97
2023-04-15T09:40:33.944Z,5.30
2023-04-15T09:43:03.002Z,5.00
2023-04-15T09:45:32.342Z,5.27
2023-04-15T09:48:02.007Z,3.80
2023-04-15T09:50:31.532Z,3.37
2023-04-15T09:52:59.830Z,2.40
2023-04-15T09:55:27.941Z,3.10
2023-04-15T09:57:56.076Z,2.90
2023-04-15T10:00:24.206Z,3.23
2023-04-15T10:02:53.405Z,2.87
2023-04-15T10:05:23.407Z,3.27
2023-04-15T10:07:53.237Z,3.60
2023-04-15T10:10:22.188Z,2.77
2023-04-15T10:12:52.537Z,2.50
2023-04-15T10:15:20.841Z,2.47
2023-04-15T10:17:51.997Z,1.93
2023-04-15T10:20:22.002Z,2.33
2023-04-15T10:22:50.719Z,1.83
2023-04-15T10:25:21.055Z,2.07
2023-04-15T10:28:12.917Z,2.20
2023-04-15T10:30:41.557Z,1.80
2023-04-15T10:33:11.219Z,1.90
2023-04-15T10:35:39.895Z,1.30
2023-04-15T10:38:39.122Z,1.60
2023-04-15T10:41:21.147Z,1.77
2023-04-15T10:43:51.584Z,1.50
2023-04-15T10:46:37.779Z,1.83
2023-04-15T10:49:11.152Z,1.90
2023-04-15T10:51:42.551Z,2.30
2023-04-15T10:54:14.916Z,1.90
2023-04-15T10:56:46.144Z,1.97
2023-04-15T10:59:14.262Z,2.43
2023-04-15T11:01:53.183Z,2.30
2023-04-15T11:04:52.999Z,2.37
2023-04-15T11:07:42.335Z,2.30
2023-04-15T11:10:58.844Z,2.10
2023-04-15T11:13:31.504Z,2.60
2023-04-15T11:16:04.614Z,3.00
2023-04-15T11:18:35.855Z,2.60
2023-04-15T11:21:06.588Z,2.53
2023-04-15T11:23:40.073Z,2.10
2023-04-15T11:26:12.021Z,1.90
2023-04-15T11:28:43.620Z,1.83
2023-04-15T11:31:13.980Z,2.37
2023-04-15T11:33:54.776Z,2.40
2023-04-15T11:36:27.212Z,2.00
2023-04-15T11:38:55.656Z,1.73
2023-04-15T11:41:24.417Z,1.47
2023-04-15T11:43:54.417Z,1.60
2023-04-15T11:46:22.721Z,1.80
2023-04-15T11:48:51.093Z,1.53
2023-04-15T11:51:21.841Z,2.53
2023-04-15T11:53:52.018Z,1.80
2023-04-15T11:56:22.789Z,1.10
2023-04-15T11:58:57.036Z,1.20
2023-04-15T12:01:32.909Z,1.77
2023-04-15T12:04:02.452Z,2.00
2023-04-15T12:06:35.041Z,1.80
2023-04-15T12:09:11.137Z,1.70
2023-04-15T12:11:41.842Z,1.67
2023-04-15T12:14:26.316Z,1.20
2023-04-15T12:16:58.331Z,1.40
2023-04-15T12:19:28.680Z,2.00
2023-04-15T12:22:01.164Z,1.57
2023-04-15T12:24:32.049Z,1.70
2023-04-15T12:27:03.979Z,2.40
2023-04-15T12:29:34.505Z,1.50
2023-04-15T12:32:07.605Z,1.40
2023-04-15T12:34:37.003Z,1.97
2023-04-15T12:37:09.566Z,1.50
2023-04-15T12:39:39.688Z,1.70
2023-04-15T12:42:09.037Z,1.30
2023-04-15T12:44:40.283Z,1.53
2023-04-15T12:47:09.858Z,1.60
2023-04-15T12:49:38.302Z,1.80
2023-04-15T12:52:06.864Z,1.40
2023-04-15T12:54:36.116Z,2.10
2023-04-15T12:57:07.320Z,1.50
2023-04-15T12:59:36.032Z,1.73
2023-04-15T13:02:06.214Z,1.20
2023-04-15T13:04:34.486Z,1.70
2023-04-15T13:07:03.182Z,1.20
2023-04-15T13:09:31.356Z,1.83
2023-04-15T13:11:59.703Z,1.13
2023-04-15T13:14:28.184Z,1.30
2023-04-15T13:16:56.327Z,1.40
2023-04-15T13:19:25.800Z,2.20
2023-04-15T13:21:53.992Z,1.57
2023-04-15T13:24:22.127Z,1.40
2023-04-15T13:26:50.556Z,1.37
2023-04-15T13:29:18.804Z,1.70
2023-04-15T13:31:47.033Z,1.77
2023-04-15T13:34:15.204Z,1.20
2023-04-15T13:36:44.725Z,1.40
2023-04-15T13:39:13.284Z,1.50
2023-04-15T13:41:41.705Z,1.57
2023-04-15T13:44:09.840Z,1.63
2023-04-15T13:46:39.624Z,1.80
2023-04-15T13:49:08.154Z,1.50
2023-04-15T13:51:37.236Z,1.53
2023-04-15T13:54:07.120Z,1.90
2023-04-15T13:56:35.289Z,1.70
2023-04-15T13:59:03.706Z,2.00
2023-04-15T14:01:32.195Z,1.90
2023-04-15T14:04:00.593Z,1.57
2023-04-15T14:06:29.243Z,2.80
2023-04-15T14:08:57.346Z,2.17
2023-04-15T14:11:26.983Z,1.83
2023-04-15T14:13:55.080Z,2.30
2023-04-15T14:16:23.371Z,2.70
2023-04-15T14:18:51.546Z,2.30
2023-04-15T14:21:19.916Z,2.40
2023-04-15T14:23:48.067Z,2.60
2023-04-15T14:26:16.219Z,2.30
2023-04-15T14:28:45.807Z,2.63
2023-04-15T14:31:14.324Z,2.40
2023-04-15T14:33:42.812Z,2.20
2023-04-15T14:36:11.394Z,2.60
2023-04-15T14:38:40.293Z,3.30
2023-04-15T14:41:09.055Z,2.10
2023-04-15T14:43:37.798Z,1.63
2023-04-15T14:46:08.592Z,2.40
2023-04-15T14:48:36.961Z,2.73
2023-04-15T14:51:05.289Z,2.90
2023-04-15T14:53:33.493Z,1.97
2023-04-15T14:56:01.647Z,2.23
2023-04-15T14:58:29.840Z,2.40
2023-04-15T15:00:58.086Z,2.17
2023-04-15T15:03:27.762Z,2.10
2023-04-15T15:05:57.716Z,3.00
2023-04-15T15:08:26.162Z,3.00
2023-04-15T15:10:54.360Z,2.50
2023-04-15T15:13:22.582Z,2.83
2023-04-15T15:15:50.778Z,2.40
2023-04-15T15:18:19.791Z,2.60
2023-04-15T15:20:49.577Z,2.67
2023-04-15T15:23:17.759Z,2.50
2023-04-15T15:25:47.454Z,2.40
2023-04-15T15:28:15.585Z,2.70
2023-04-15T15:30:43.667Z,2.60
2023-04-15T15:33:11.889Z,2.53
2023-04-15T15:35:41.021Z,2.07
2023-04-15T15:38:13.294Z,2.37
2023-04-15T15:40:41.739Z,2.57
2023-04-15T15:43:10.289Z,2.80
2023-04-15T15:45:38.596Z,2.53
2023-04-15T15:48:07.708Z,2.43
2023-04-15T15:50:35.963Z,3.03
2023-04-15T15:53:04.171Z,2.43
2023-04-15T15:55:33.949Z,2.53
2023-04-15T15:58:02.081Z,2.60
2023-04-15T16:00:30.402Z,2.70
2023-04-15T16:05:29.728Z,2.97
2023-04-15T16:07:57.894Z,3.10
2023-04-15T16:10:26.690Z,3.13
2023-04-15T16:12:56.501Z,3.00
2023-04-15T16:15:26.511Z,2.93
2023-04-15T16:17:54.736Z,2.63
2023-04-15T16:20:22.976Z,3.00
2023-04-15T16:22:51.719Z,2.90
2023-04-15T16:25:20.029Z,1.97
2023-04-15T16:28:00.799Z,1.67
2023-04-15T16:30:37.005Z,0.93
2023-04-15T16:33:05.315Z,1.20
2023-04-15T16:35:34.746Z,2.30
2023-04-15T16:38:03.509Z,2.67
2023-04-15T16:40:32.957Z,2.73
2023-04-15T16:43:01.196Z,2.70
2023-04-15T16:45:29.383Z,3.23
2023-04-15T16:47:59.180Z,3.63
2023-04-15T16:50:27.345Z,3.80
2023-04-15T16:52:55.868Z,3.50
2023-04-15T16:55:24.081Z,3.77
2023-04-15T16:58:02.989Z,3.53
2023-04-15T17:00:33.012Z,4.00
2023-04-15T17:03:03.648Z,3.43
2023-04-15T17:05:32.081Z,2.80
2023-04-15T17:08:00.235Z,2.60
2023-04-15T17:10:29.020Z,3.17
2023-04-15T17:12:58.230Z,3.57
2023-04-15T17:15:27.469Z,2.83
2023-04-15T17:17:56.258Z,3.07
2023-04-15T17:20:26.566Z,2.97
2023-04-15T17:22:54.713Z,3.33
2023-04-15T17:25:23.018Z,3.37
2023-04-15T17:27:51.349Z,2.93
2023-04-15T17:30:20.113Z,2.93
2023-04-15T17:32:48.351Z,2.70
2023-04-15T17:35:16.472Z,2.90
2023-04-15T17:37:46.809Z,2.63
2023-04-15T17:40:15.231Z,2.53
2023-04-15T17:42:43.374Z,2.20
2023-04-15T17:45:12.441Z,2.47
2023-04-15T17:47:40.571Z,2.40
2023-04-15T17:50:09.832Z,2.50
2023-04-15T17:52:37.990Z,1.93
2023-04-15T17:55:09.002Z,2.63
2023-04-15T17:57:37.335Z,1.60
2023-04-15T18:00:06.329Z,1.43
2023-04-15T18:02:41.321Z,1.63
2023-04-15T18:05:10.424Z,1.40
2023-04-15T18:07:38.721Z,1.47
2023-04-15T18:10:09.913Z,3.40
2023-04-15T18:12:38.186Z,1.50
2023-04-15T18:15:07.400Z,1.90
2023-04-15T18:17:35.534Z,1.90
2023-04-15T18:20:03.803Z,1.80
2023-04-15T18:22:31.988Z,1.30
2023-04-15T18:25:04.302Z,1.90
2023-04-15T18:27:35.628Z,1.80
2023-04-15T18:30:03.828Z,1.13
2023-04-15T18:32:32.689Z,1.10
2023-04-15T18:35:01.093Z,1.30
2023-04-15T18:37:30.399Z,1.07
2023-04-15T18:39:58.790Z,1.47
2023-04-15T18:42:27.291Z,1.00
2023-04-15T18:44:56.852Z,1.50
2023-04-15T18:47:27.128Z,1.20
2023-04-15T18:49:55.479Z,0.90
2023-04-15T18:52:23.619Z,1.30
2023-04-15T18:54:51.679Z,1.20
2023-04-15T18:57:22.730Z,1.00
2023-04-15T18:59:55.318Z,1.43
2023-04-15T19:02:24.902Z,1.30
2023-04-15T19:04:53.105Z,1.00
2023-04-15T19:07:22.133Z,1.20
2023-04-15T19:09:50.372Z,1.00
2023-04-15T19:12:18.526Z,0.80
2023-04-15T19:14:46.670Z,1.07
2023-04-15T19:17:14.788Z,1.10
2023-04-15T19:19:44.457Z,1.67
2023-04-15T19:22:12.621Z,1.10
2023-04-15T19:24:40.899Z,1.53
2023-04-15T19:27:09.031Z,1.30
2023-04-15T19:29:37.193Z,1.27
2023-04-15T19:32:05.729Z,1.53
2023-04-15T19:34:33.984Z,1.50
2023-04-15T19:37:03.435Z,1.77
2023-04-15T19:39:31.816Z,1.30
2023-04-15T19:41:59.912Z,1.50
2023-04-15T19:44:28.312Z,1.40
2023-04-15T19:46:56.416Z,1.60
2023-04-15T19:49:25.948Z,1.50
2023-04-15T19:51:54.101Z,1.60
2023-04-15T19:54:24.084Z,1.60
2023-04-15T19:56:52.176Z,1.40
2023-04-15T19:59:20.274Z,1.50
2023-04-15T20:01:48.575Z,1.60
2023-04-15T20:04:16.933Z,1.70
2023-04-15T20:06:45.281Z,1.80
2023-04-15T20:09:13.408Z,1.70
2023-04-15T20:12:46.228Z,1.57
2023-04-15T20:14:31.530Z,1.60
2023-04-15T20:16:59.681Z,1.87
2023-04-15T20:19:28.051Z,1.20
2023-04-15T20:21:56.189Z,1.60
2023-04-15T20:24:24.733Z,1.97
2023-04-15T20:26:54.282Z,1.87
2023-04-15T20:29:22.504Z,2.23
2023-04-15T20:31:51.022Z,1.80
2023-04-15T20:34:19.348Z,2.10
2023-04-15T20:36:47.419Z,1.80
2023-04-15T20:39:15.903Z,2.23
2023-04-15T20:41:44.039Z,2.80
2023-04-15T20:44:13.501Z,2.40
2023-04-15T20:46:41.793Z,3.10
2023-04-15T20:49:09.978Z,2.27
2023-04-15T20:51:38.274Z,2.70
2023-04-15T20:54:06.881Z,2.40
2023-04-15T20:56:34.976Z,2.40
2023-04-15T20:59:03.356Z,2.67
2023-04-15T21:01:33.289Z,2.23
2023-04-15T21:04:01.427Z,2.30
2023-04-15T21:06:29.621Z,2.63
2023-04-15T21:08:57.690Z,2.80
2023-04-15T21:11:46.473Z,2.23
2023-04-15T21:14:13.929Z,2.50
2023-04-15T21:16:43.898Z,2.87
2023-04-15T21:19:12.043Z,2.40
2023-04-15T21:21:40.485Z,2.80
2023-04-15T21:24:08.918Z,2.53
2023-04-15T21:26:37.080Z,2.20
2023-04-15T21:29:05.857Z,2.67
2023-04-15T21:31:35.424Z,2.63
2023-04-15T21:34:04.949Z,2.90
2023-04-15T21:36:33.934Z,2.90
2023-04-15T21:39:02.436Z,2.90
2023-04-15T21:41:31.106Z,3.40
2023-04-15T21:43:59.258Z,2.97
2023-04-15T21:46:33.360Z,3.33
2023-04-15T21:49:06.858Z,2.80
2023-04-15T21:51:35.627Z,2.67
2023-04-15T21:54:03.753Z,2.60
2023-04-15T21:56:32.447Z,3.90
2023-04-15T21:59:01.204Z,3.60
2023-04-15T22:01:29.868Z,3.37
2023-04-15T22:03:58.197Z,3.63
2023-04-15T22:06:27.813Z,3.70
2023-04-15T22:08:57.772Z,3.40
2023-04-15T22:11:28.506Z,3.57
2023-04-15T22:13:57.712Z,5.47
2023-04-15T22:16:26.471Z,3.80
2023-04-15T22:18:54.891Z,3.60
2023-04-15T22:21:23.077Z,4.30
2023-04-15T22:23:53.233Z,3.83
2023-04-15T22:26:41.393Z,4.20
2023-04-15T22:29:09.661Z,4.73
2023-04-15T22:31:38.048Z,4.50
2023-04-15T22:34:06.241Z,4.57
2023-04-15T22:36:34.440Z,5.00
2023-04-15T22:39:04.288Z,4.53
2023-04-15T22:41:32.655Z,5.23
2023-04-15T22:44:00.849Z,5.50
2023-04-15T22:46:28.988Z,4.90
2023-04-15T22:48:57.143Z,5.60
2023-04-15T22:51:26.994Z,5.67
2023-04-15T22:53:55.235Z,5.77
2023-04-15T22:56:24.781Z,6.73
2023-04-15T22:58:53.019Z,6.37
2023-04-15T23:01:21.262Z,6.50
2023-04-15T23:03:58.262Z,7.97
2023-04-15T23:06:35.121Z,7.27
2023-04-15T23:09:03.277Z,8.10
2023-04-15T23:11:32.857Z,9.53
2023-04-15T23:14:00.990Z,10.90
2023-04-15T23:16:29.506Z,10.57
2023-04-15T23:18:57.607Z,12.33
2023-04-15T23:21:27.344Z,11.60
2023-04-15T23:23:55.629Z,11.80
2023-04-15T23:26:23.752Z,12.80
2023-04-15T23:28:53.267Z,13.73
2023-04-15T23:31:21.507Z,13.80
2023-04-15T23:33:49.599Z,12.90
2023-04-15T23:36:17.751Z,13.97
2023-04-15T23:38:46.114Z,14.30
2023-04-15T23:41:15.018Z,12.50
2023-04-15T23:43:43.129Z,13.27
2023-04-15T23:46:13.144Z,14.10
2023-04-15T23:48:41.956Z,13.70
2023-04-15T23:51:10.134Z,13.10
2023-04-15T23:53:38.261Z,13.93
2023-04-15T23:56:07.208Z,13.07
2023-04-15T23:58:35.327Z,13.90
